EW2351 Weather Reports


time (UTC)temp
C
wind
direction
speed
KPH
gust
KPH
rain 1hr
cm
rain 24hr
cm
rain mn
cm
humidity
%
barometer
mb
20200229071519 12 230 6.4 12.9 0.00 0.00 0.00 28 1025.5
20200229070017 12 238 6.4 11.3 0.00 0.00 0.00 28 1025.6
20200229064530 12 253 8.0 11.3 0.00 0.00 0.00 28 1025.8
20200229061511 12 252 8.0 12.9 0.00 0.00 0.00 26 1025.8
20200229060005 12 219 4.8 8.0 0.00 0.00 0.00 27 1025.8
20200229054504 13 236 6.4 12.9 0.00 0.00 0.00 27 1025.9
20200229051504 13 259 4.8 9.7 0.00 0.00 0.00 26 1026.0
20200229050029 13 243 6.4 9.7 0.00 0.00 0.00 26 1026.2
20200229044505 13 229 4.8 8.0 0.00 0.00 0.00 27 1026.4
20200229041513 13 246 4.8 8.0 0.00 0.00 0.00 27 1026.4
20200229040003 14 205 0.0 6.4 0.00 0.00 0.00 27 1026.4
20200229034502 13 231 1.6 3.2 0.00 0.00 0.00 28 1026.3
20200229031503 14 214 0.0 4.8 0.00 0.00 0.00 29 1026.3
20200229030120 13 204 0.0 0.0 0.00 0.00 0.00 34 1026.4
20200229024703 15 203 0.0 3.2 0.00 0.00 0.00 30 1026.2
20200229023135 15 233 3.2 6.4 0.00 0.00 0.00 26 1026.2
20200229021507 15 227 3.2 6.4 0.00 0.00 0.00 27 1026.0
20200229020005 15 233 0.0 1.6 0.00 0.00 0.00 28 1026.1
20200229014502 15 158 0.0 0.0 0.00 0.00 0.00 29 1026.0
20200229011502 16 170 0.0 1.6 0.00 0.00 0.00 26 1025.8
20200229010004 16 153 0.0 3.2 0.00 0.00 0.00 27 1025.8
20200229004502 16 199 0.0 3.2 0.00 0.00 0.00 25 1025.8
20200229001501 17 127 0.0 3.2 0.00 0.00 0.00 24 1025.7
20200229000128 18 125 1.6 6.4 0.00 0.00 0.00 23 1025.5
20200228234657 18 139 0.0 1.6 0.00 0.00 0.00 22 1025.5
20200228233157 20 168 1.6 6.4 0.00 0.00 0.00 17 1025.5
20200228230128 21 147 0.0 6.4 0.00 0.00 0.00 15 1025.3
20200228224658 21 150 3.2 9.7 0.00 0.00 0.00 16 1025.3
20200228223430 22 141 3.2 14.5 0.00 0.00 0.00 13 1025.1
20200228221809 22 182 9.7 14.5 0.00 0.00 0.00 11 1025.2
20200228220205 22 146 1.6 4.8 0.00 0.00 0.00 9 1025.4
20200228214633 22 354 1.6 6.4 0.00 0.00 0.00 11 1025.4
20200228213230 22 141 3.2 8.0 0.00 0.00 0.00 13 1025.5
20200228211635 22 41 1.6 6.4 0.00 0.00 0.00 12 1025.6
20200228204629 21 244 4.8 11.3 0.00 0.00 0.00 10 1025.7
20200228203134 21 25 0.0 11.3 0.00 0.00 0.00 12 1026.1
20200228201823 21 318 3.2 11.3 0.00 0.00 0.00 10 1026.2
20200228200111 20 181 3.2 12.9 0.00 0.00 0.00 13 1026.3
20200228194621 20 206 4.8 11.3 0.00 0.00 0.00 11 1026.8
20200228193042 20 275 1.6 8.0 0.00 0.00 0.00 13 1027.0
20200228191536 19 316 0.0 6.4 0.00 0.00 0.00 14 1027.2
20200228190049 19 11 1.6 11.3 0.00 0.00 0.00 14 1027.6
20200228184531 19 336 0.0 6.4 0.00 0.00 0.00 15 1027.9
20200228183103 18 4 4.8 12.9 0.00 0.00 0.00 16 1028.4
20200228181549 18 20 6.4 12.9 0.00 0.00 0.00 18 1028.5
20200228180043 17 26 4.8 12.9 0.00 0.00 0.00 19 1028.8
20200228174545 17 179 1.6 8.0 0.00 0.00 0.00 20 1029.0
20200228173023 16 278 3.2 8.0 0.00 0.00 0.00 20 1029.3
20200228171522 16 272 3.2 9.7 0.00 0.00 0.00 20 1029.3
20200228170021 15 279 3.2 9.7 0.00 0.00 0.00 20 1029.4
20200228164523 14 6 3.2 14.5 0.00 0.00 0.00 20 1029.6
20200228163040 14 322 4.8 14.5 0.00 0.00 0.00 19 1029.5
20200228161540 14 17 6.4 16.1 0.00 0.00 0.00 20 1029.5
20200228160016 14 353 4.8 12.9 0.00 0.00 0.00 22 1029.4
20200228154511 13 307 4.8 16.1 0.00 0.00 0.00 20 1029.6
20200228153002 13 326 3.2 9.7 0.00 0.00 0.00 22 1029.4
20200228151503 12 283 1.6 9.7 0.00 0.00 0.00 25 1029.4
20200228150227 11 324 0.0 6.4 0.00 0.00 0.00 30 1029.2
20200228144624 10 249 0.0 4.8 0.00 0.00 0.00 32 1029.1
20200228143159 8 291 1.6 4.8 0.00 0.00 0.00 36 1029.0
20200228141513 7 272 1.6 4.8 0.00 0.00 0.00 37 1028.6
20200228140009 6 255 0.0 3.2 0.00 0.00 0.00 39 1028.4
20200228133115 5 247 0.0 3.2 0.00 0.00 0.00 41 1028.2
20200228131610 5 222 0.0 3.2 0.00 0.00 0.00 40 1028.0
20200228130110 4 241 0.0 3.2 0.00 0.00 0.00 40 1027.8
20200228123054 4 236 0.0 3.2 0.00 0.00 0.00 40 1027.7
20200228121659 5 251 1.6 4.8 0.00 0.00 0.00 38 1027.7
20200228120043 4 253 0.0 1.6 0.00 0.00 0.00 39 1027.6
20200228113042 5 351 0.0 4.8 0.00 0.00 0.00 38 1027.0
20200228111514 6 115 0.0 3.2 0.00 0.00 0.00 36 1026.8
20200228110041 6 238 3.2 9.7 0.00 0.00 0.00 34 1026.5
20200228103031 7 243 8.0 16.1 0.00 0.00 0.00 33 1026.3
20200228101513 7 262 8.0 16.1 0.00 0.00 0.00 34 1026.1
20200228100016 7 233 4.8 12.9 0.00 0.00 0.00 34 1026.2
20200228093027 7 240 11.3 22.5 0.00 0.00 0.00 34 1026.1
20200228091543 6 271 11.3 20.9 0.00 0.00 0.00 34 1026.2
20200228090009 6 234 8.0 20.9 0.00 0.00 0.00 34 1026.1
20200228083021 6 241 4.8 12.9 0.00 0.00 0.00 35 1026.3
20200228081507 6 221 4.8 11.3 0.00 0.00 0.00 34 1026.3
20200228080126 7 234 6.4 14.5 0.00 0.00 0.00 32 1026.4
20200228080003 7 240 6.4 14.5 0.00 0.00 0.00 32 1026.4